sensor_id;sensor_type;location;lat;lon;timestamp;temperature;humidity
8711;DHT22;4392;47.400;8.062;2022-10-26T00:00:32;15.20;99.90
8711;DHT22;4392;47.400;8.062;2022-10-26T00:02:58;15.20;99.90
8711;DHT22;4392;47.400;8.062;2022-10-26T00:05:24;15.20;99.90
8711;DHT22;4392;47.400;8.062;2022-10-26T00:07:50;15.20;99.90
8711;DHT22;4392;47.400;8.062;2022-10-26T00:10:15;15.60;99.90
8711;DHT22;4392;47.400;8.062;2022-10-26T00:12:41;16.40;99.90
8711;DHT22;4392;47.400;8.062;2022-10-26T00:15:07;16.60;99.90
8711;DHT22;4392;47.400;8.062;2022-10-26T00:17:34;16.70;99.90
8711;DHT22;4392;47.400;8.062;2022-10-26T00:20:00;16.70;99.90
8711;DHT22;4392;47.400;8.062;2022-10-26T00:22:27;16.80;99.90
8711;DHT22;4392;47.400;8.062;2022-10-26T00:24:54;16.90;99.90
8711;DHT22;4392;47.400;8.062;2022-10-26T00:27:19;16.90;99.90
8711;DHT22;4392;47.400;8.062;2022-10-26T00:29:45;16.60;99.90
8711;DHT22;4392;47.400;8.062;2022-10-26T00:32:13;16.40;99.90
8711;DHT22;4392;47.400;8.062;2022-10-26T00:34:39;16.40;99.90
8711;DHT22;4392;47.400;8.062;2022-10-26T00:37:05;16.30;99.90
8711;DHT22;4392;47.400;8.062;2022-10-26T00:39:31;16.40;99.90
8711;DHT22;4392;47.400;8.062;2022-10-26T00:41:59;16.30;99.90
8711;DHT22;4392;47.400;8.062;2022-10-26T00:47:17;16.20;99.90
8711;DHT22;4392;47.400;8.062;2022-10-26T00:49:44;16.20;99.90
8711;DHT22;4392;47.400;8.062;2022-10-26T00:52:12;16.10;99.90
8711;DHT22;4392;47.400;8.062;2022-10-26T00:54:39;16.10;99.90
8711;DHT22;4392;47.400;8.062;2022-10-26T00:57:05;16.00;99.90
8711;DHT22;4392;47.400;8.062;2022-10-26T00:59:31;16.00;99.90
8711;DHT22;4392;47.400;8.062;2022-10-26T01:01:58;16.00;99.90
8711;DHT22;4392;47.400;8.062;2022-10-26T01:04:23;16.00;99.90
8711;DHT22;4392;47.400;8.062;2022-10-26T01:06:51;16.00;99.90
8711;DHT22;4392;47.400;8.062;2022-10-26T01:09:18;15.90;99.90
8711;DHT22;4392;47.400;8.062;2022-10-26T01:11:44;16.00;99.90
8711;DHT22;4392;47.400;8.062;2022-10-26T01:14:13;16.00;99.90
8711;DHT22;4392;47.400;8.062;2022-10-26T01:22:38;15.90;99.90
8711;DHT22;4392;47.400;8.062;2022-10-26T01:27:39;15.80;99.90
8711;DHT22;4392;47.400;8.062;2022-10-26T01:38:07;15.70;99.90
8711;DHT22;4392;47.400;8.062;2022-10-26T01:40:53;15.60;99.90
8711;DHT22;4392;47.400;8.062;2022-10-26T01:43:22;15.60;99.90
8711;DHT22;4392;47.400;8.062;2022-10-26T01:45:55;15.80;99.90
8711;DHT22;4392;47.400;8.062;2022-10-26T01:48:23;15.80;99.90
8711;DHT22;4392;47.400;8.062;2022-10-26T01:50:52;15.70;99.90
8711;DHT22;4392;47.400;8.062;2022-10-26T01:53:20;15.60;99.90
8711;DHT22;4392;47.400;8.062;2022-10-26T01:55:49;15.60;99.90
8711;DHT22;4392;47.400;8.062;2022-10-26T02:04:50;15.50;99.90
8711;DHT22;4392;47.400;8.062;2022-10-26T02:10:13;15.40;99.90
8711;DHT22;4392;47.400;8.062;2022-10-26T02:15:58;15.40;99.90
8711;DHT22;4392;47.400;8.062;2022-10-26T02:21:21;15.40;99.90
8711;DHT22;4392;47.400;8.062;2022-10-26T02:23:51;15.40;99.90
8711;DHT22;4392;47.400;8.062;2022-10-26T02:26:24;15.60;99.90
8711;DHT22;4392;47.400;8.062;2022-10-26T02:28:56;16.40;99.90
8711;DHT22;4392;47.400;8.062;2022-10-26T02:31:25;16.00;99.90
8711;DHT22;4392;47.400;8.062;2022-10-26T02:33:53;15.80;99.90
8711;DHT22;4392;47.400;8.062;2022-10-26T02:36:27;15.60;99.90
8711;DHT22;4392;47.400;8.062;2022-10-26T02:38:54;15.50;99.90
8711;DHT22;4392;47.400;8.062;2022-10-26T02:41:22;15.40;99.90
8711;DHT22;4392;47.400;8.062;2022-10-26T02:43:58;15.30;99.90
8711;DHT22;4392;47.400;8.062;2022-10-26T02:46:26;15.30;99.90
8711;DHT22;4392;47.400;8.062;2022-10-26T02:48:55;15.20;99.90
8711;DHT22;4392;47.400;8.062;2022-10-26T02:59:21;15.10;99.90
8711;DHT22;4392;47.400;8.062;2022-10-26T03:01:49;15.10;99.90
8711;DHT22;4392;47.400;8.062;2022-10-26T03:04:16;15.20;99.90
8711;DHT22;4392;47.400;8.062;2022-10-26T03:06:51;15.20;99.90
8711;DHT22;4392;47.400;8.062;2022-10-26T03:09:17;15.20;99.90
8711;DHT22;4392;47.400;8.062;2022-10-26T03:11:43;15.20;99.90
8711;DHT22;4392;47.400;8.062;2022-10-26T03:14:09;15.20;99.90
8711;DHT22;4392;47.400;8.062;2022-10-26T03:16:36;15.10;99.90
8711;DHT22;4392;47.400;8.062;2022-10-26T03:19:02;15.10;99.90
8711;DHT22;4392;47.400;8.062;2022-10-26T03:21:28;15.10;99.90
8711;DHT22;4392;47.400;8.062;2022-10-26T03:23:54;15.10;99.90
8711;DHT22;4392;47.400;8.062;2022-10-26T03:26:23;15.10;99.90
8711;DHT22;4392;47.400;8.062;2022-10-26T03:28:49;15.20;99.90
8711;DHT22;4392;47.400;8.062;2022-10-26T03:31:14;15.30;99.90
8711;DHT22;4392;47.400;8.062;2022-10-26T03:33:40;15.30;99.90
8711;DHT22;4392;47.400;8.062;2022-10-26T03:36:07;15.10;99.90
8711;DHT22;4392;47.400;8.062;2022-10-26T03:38:32;15.10;99.90
8711;DHT22;4392;47.400;8.062;2022-10-26T03:41:01;15.20;99.90
8711;DHT22;4392;47.400;8.062;2022-10-26T03:43:27;15.10;99.90
8711;DHT22;4392;47.400;8.062;2022-10-26T03:45:53;15.10;99.90
8711;DHT22;4392;47.400;8.062;2022-10-26T03:48:28;15.20;99.90
8711;DHT22;4392;47.400;8.062;2022-10-26T03:50:58;15.10;99.90
8711;DHT22;4392;47.400;8.062;2022-10-26T03:53:25;15.10;99.90
8711;DHT22;4392;47.400;8.062;2022-10-26T03:55:51;15.10;99.90
8711;DHT22;4392;47.400;8.062;2022-10-26T03:58:17;15.10;99.90
8711;DHT22;4392;47.400;8.062;2022-10-26T04:00:43;15.00;99.90
8711;DHT22;4392;47.400;8.062;2022-10-26T04:03:08;15.10;99.90
8711;DHT22;4392;47.400;8.062;2022-10-26T04:05:34;15.10;99.90
8711;DHT22;4392;47.400;8.062;2022-10-26T04:08:01;15.10;99.90
8711;DHT22;4392;47.400;8.062;2022-10-26T04:10:28;15.10;99.90
8711;DHT22;4392;47.400;8.062;2022-10-26T04:12:55;15.10;99.90
8711;DHT22;4392;47.400;8.062;2022-10-26T04:15:22;15.10;99.90
8711;DHT22;4392;47.400;8.062;2022-10-26T04:17:48;15.10;99.90
8711;DHT22;4392;47.400;8.062;2022-10-26T04:20:19;15.10;99.90
8711;DHT22;4392;47.400;8.062;2022-10-26T04:22:45;15.10;99.90
8711;DHT22;4392;47.400;8.062;2022-10-26T04:25:10;15.00;99.90
8711;DHT22;4392;47.400;8.062;2022-10-26T04:27:38;15.00;99.90
8711;DHT22;4392;47.400;8.062;2022-10-26T04:30:05;15.00;99.90
8711;DHT22;4392;47.400;8.062;2022-10-26T04:32:34;15.00;99.90
8711;DHT22;4392;47.400;8.062;2022-10-26T04:35:00;15.00;99.90
8711;DHT22;4392;47.400;8.062;2022-10-26T04:37:26;15.00;99.90
8711;DHT22;4392;47.400;8.062;2022-10-26T04:39:51;15.00;99.90
8711;DHT22;4392;47.400;8.062;2022-10-26T04:42:17;15.00;99.90
8711;DHT22;4392;47.400;8.062;2022-10-26T04:44:43;15.00;99.90
8711;DHT22;4392;47.400;8.062;2022-10-26T04:47:08;14.90;99.90
8711;DHT22;4392;47.400;8.062;2022-10-26T04:49:36;14.90;99.90
8711;DHT22;4392;47.400;8.062;2022-10-26T04:52:04;14.90;99.90
8711;DHT22;4392;47.400;8.062;2022-10-26T04:54:30;15.00;99.90
8711;DHT22;4392;47.400;8.062;2022-10-26T04:56:56;15.00;99.90
8711;DHT22;4392;47.400;8.062;2022-10-26T04:59:21;15.00;99.90
8711;DHT22;4392;47.400;8.062;2022-10-26T05:01:47;15.00;99.90
8711;DHT22;4392;47.400;8.062;2022-10-26T05:04:13;15.00;99.90
8711;DHT22;4392;47.400;8.062;2022-10-26T05:06:39;15.00;99.90
8711;DHT22;4392;47.400;8.062;2022-10-26T05:09:05;15.10;99.90
8711;DHT22;4392;47.400;8.062;2022-10-26T05:11:31;15.10;99.90
8711;DHT22;4392;47.400;8.062;2022-10-26T05:13:56;15.00;99.90
8711;DHT22;4392;47.400;8.062;2022-10-26T05:16:22;15.10;99.90
8711;DHT22;4392;47.400;8.062;2022-10-26T05:18:51;15.00;99.90
8711;DHT22;4392;47.400;8.062;2022-10-26T05:21:17;14.90;99.90
8711;DHT22;4392;47.400;8.062;2022-10-26T05:23:53;15.00;99.90
8711;DHT22;4392;47.400;8.062;2022-10-26T05:26:21;15.00;99.90
8711;DHT22;4392;47.400;8.062;2022-10-26T05:28:47;15.00;99.90
8711;DHT22;4392;47.400;8.062;2022-10-26T05:31:23;15.00;99.90
8711;DHT22;4392;47.400;8.062;2022-10-26T05:33:50;15.00;99.90
8711;DHT22;4392;47.400;8.062;2022-10-26T05:36:19;15.00;99.90
8711;DHT22;4392;47.400;8.062;2022-10-26T05:38:45;15.00;99.90
8711;DHT22;4392;47.400;8.062;2022-10-26T05:41:11;14.90;99.90
8711;DHT22;4392;47.400;8.062;2022-10-26T05:43:40;15.00;99.90
8711;DHT22;4392;47.400;8.062;2022-10-26T05:46:06;15.00;99.90
8711;DHT22;4392;47.400;8.062;2022-10-26T05:48:34;15.00;99.90
8711;DHT22;4392;47.400;8.062;2022-10-26T05:51:00;15.00;99.90
8711;DHT22;4392;47.400;8.062;2022-10-26T05:53:29;15.00;99.90
8711;DHT22;4392;47.400;8.062;2022-10-26T05:55:55;15.10;99.90
8711;DHT22;4392;47.400;8.062;2022-10-26T05:58:22;15.10;99.90
8711;DHT22;4392;47.400;8.062;2022-10-26T06:05:53;15.10;99.90
8711;DHT22;4392;47.400;8.062;2022-10-26T06:08:21;15.10;99.90
8711;DHT22;4392;47.400;8.062;2022-10-26T06:10:48;15.10;99.90
8711;DHT22;4392;47.400;8.062;2022-10-26T06:13:14;15.10;99.90
8711;DHT22;4392;47.400;8.062;2022-10-26T06:16:06;15.10;99.90
8711;DHT22;4392;47.400;8.062;2022-10-26T06:18:57;15.20;99.90
8711;DHT22;4392;47.400;8.062;2022-10-26T06:24:31;15.10;99.90
8711;DHT22;4392;47.400;8.062;2022-10-26T06:32:21;15.00;99.90
8711;DHT22;4392;47.400;8.062;2022-10-26T06:34:50;15.00;99.90
8711;DHT22;4392;47.400;8.062;2022-10-26T06:37:17;15.00;99.90
8711;DHT22;4392;47.400;8.062;2022-10-26T06:39:45;15.20;99.90
8711;DHT22;4392;47.400;8.062;2022-10-26T06:42:13;15.20;99.90
8711;DHT22;4392;47.400;8.062;2022-10-26T06:44:40;15.10;99.90
8711;DHT22;4392;47.400;8.062;2022-10-26T06:47:14;15.10;99.90
8711;DHT22;4392;47.400;8.062;2022-10-26T06:52:45;15.10;99.90
8711;DHT22;4392;47.400;8.062;2022-10-26T06:55:14;15.10;99.90
8711;DHT22;4392;47.400;8.062;2022-10-26T06:57:43;14.90;99.90
8711;DHT22;4392;47.400;8.062;2022-10-26T07:00:19;15.10;99.90
8711;DHT22;4392;47.400;8.062;2022-10-26T07:02:46;15.30;99.90
8711;DHT22;4392;47.400;8.062;2022-10-26T07:05:13;15.30;99.90
8711;DHT22;4392;47.400;8.062;2022-10-26T07:07:45;15.30;99.90
8711;DHT22;4392;47.400;8.062;2022-10-26T07:10:13;15.30;99.90
8711;DHT22;4392;47.400;8.062;2022-10-26T07:12:39;15.20;99.90
8711;DHT22;4392;47.400;8.062;2022-10-26T07:15:06;15.20;99.90
8711;DHT22;4392;47.400;8.062;2022-10-26T07:17:46;15.20;99.90
8711;DHT22;4392;47.400;8.062;2022-10-26T07:20:14;15.20;99.90
8711;DHT22;4392;47.400;8.062;2022-10-26T07:22:41;15.40;99.90
8711;DHT22;4392;47.400;8.062;2022-10-26T07:25:08;15.40;99.90
8711;DHT22;4392;47.400;8.062;2022-10-26T07:27:34;15.30;99.90
8711;DHT22;4392;47.400;8.062;2022-10-26T07:30:01;15.20;99.90
8711;DHT22;4392;47.400;8.062;2022-10-26T07:32:27;15.20;99.90
8711;DHT22;4392;47.400;8.062;2022-10-26T07:34:53;15.10;99.90
8711;DHT22;4392;47.400;8.062;2022-10-26T07:37:18;15.20;99.90
8711;DHT22;4392;47.400;8.062;2022-10-26T07:39:50;15.20;99.90
8711;DHT22;4392;47.400;8.062;2022-10-26T07:42:15;15.20;99.90
8711;DHT22;4392;47.400;8.062;2022-10-26T07:44:41;15.20;99.90
8711;DHT22;4392;47.400;8.062;2022-10-26T07:47:07;15.30;99.90
8711;DHT22;4392;47.400;8.062;2022-10-26T07:49:39;15.30;99.90
8711;DHT22;4392;47.400;8.062;2022-10-26T07:52:05;15.30;99.90
8711;DHT22;4392;47.400;8.062;2022-10-26T07:54:31;15.40;99.90
8711;DHT22;4392;47.400;8.062;2022-10-26T07:56:57;15.60;99.90
8711;DHT22;4392;47.400;8.062;2022-10-26T07:59:24;15.70;99.90
8711;DHT22;4392;47.400;8.062;2022-10-26T08:01:50;15.70;99.90
8711;DHT22;4392;47.400;8.062;2022-10-26T08:04:16;15.60;99.90
8711;DHT22;4392;47.400;8.062;2022-10-26T08:06:42;15.50;99.90
8711;DHT22;4392;47.400;8.062;2022-10-26T08:09:08;15.50;99.90
8711;DHT22;4392;47.400;8.062;2022-10-26T08:11:34;15.40;99.90
8711;DHT22;4392;47.400;8.062;2022-10-26T08:14:02;15.40;99.90
8711;DHT22;4392;47.400;8.062;2022-10-26T08:16:28;15.60;99.90
8711;DHT22;4392;47.400;8.062;2022-10-26T08:18:54;15.60;99.90
8711;DHT22;4392;47.400;8.062;2022-10-26T08:21:20;15.60;99.90
8711;DHT22;4392;47.400;8.062;2022-10-26T08:23:45;15.70;99.90
8711;DHT22;4392;47.400;8.062;2022-10-26T08:26:11;15.70;99.90
8711;DHT22;4392;47.400;8.062;2022-10-26T08:28:38;15.60;99.90
8711;DHT22;4392;47.400;8.062;2022-10-26T08:31:06;15.50;99.90
8711;DHT22;4392;47.400;8.062;2022-10-26T08:33:33;15.60;99.90
8711;DHT22;4392;47.400;8.062;2022-10-26T08:36:00;15.60;99.90
8711;DHT22;4392;47.400;8.062;2022-10-26T08:38:27;15.60;99.90
8711;DHT22;4392;47.400;8.062;2022-10-26T08:40:53;15.60;99.90
8711;DHT22;4392;47.400;8.062;2022-10-26T08:43:31;16.10;99.90
8711;DHT22;4392;47.400;8.062;2022-10-26T08:46:15;16.50;99.90
8711;DHT22;4392;47.400;8.062;2022-10-26T08:49:18;16.30;99.90
8711;DHT22;4392;47.400;8.062;2022-10-26T08:51:45;16.10;99.90
8711;DHT22;4392;47.400;8.062;2022-10-26T08:54:46;16.10;99.90
8711;DHT22;4392;47.400;8.062;2022-10-26T08:57:23;16.40;99.90
8711;DHT22;4392;47.400;8.062;2022-10-26T09:00:08;16.40;99.90
8711;DHT22;4392;47.400;8.062;2022-10-26T09:02:35;16.20;99.90
8711;DHT22;4392;47.400;8.062;2022-10-26T09:05:01;16.10;99.90
8711;DHT22;4392;47.400;8.062;2022-10-26T09:10:26;16.10;99.90
8711;DHT22;4392;47.400;8.062;2022-10-26T09:24:15;16.20;99.90
8711;DHT22;4392;47.400;8.062;2022-10-26T09:27:02;16.30;99.90
8711;DHT22;4392;47.400;8.062;2022-10-26T09:29:40;16.40;99.90
8711;DHT22;4392;47.400;8.062;2022-10-26T09:32:13;16.40;99.90
8711;DHT22;4392;47.400;8.062;2022-10-26T09:35:02;16.40;99.90
8711;DHT22;4392;47.400;8.062;2022-10-26T09:37:51;16.50;99.90
8711;DHT22;4392;47.400;8.062;2022-10-26T09:45:37;16.60;99.90
8711;DHT22;4392;47.400;8.062;2022-10-26T09:48:10;16.60;99.90
8711;DHT22;4392;47.400;8.062;2022-10-26T09:50:39;16.60;99.90
8711;DHT22;4392;47.400;8.062;2022-10-26T09:53:07;16.60;99.90
8711;DHT22;4392;47.400;8.062;2022-10-26T09:55:39;16.70;99.90
8711;DHT22;4392;47.400;8.062;2022-10-26T09:58:14;16.70;99.90
8711;DHT22;4392;47.400;8.062;2022-10-26T10:00:42;16.80;99.90
8711;DHT22;4392;47.400;8.062;2022-10-26T10:03:27;16.90;99.90
8711;DHT22;4392;47.400;8.062;2022-10-26T10:06:09;17.10;99.90
8711;DHT22;4392;47.400;8.062;2022-10-26T10:08:40;17.30;99.90
8711;DHT22;4392;47.400;8.062;2022-10-26T10:11:09;17.40;99.90
8711;DHT22;4392;47.400;8.062;2022-10-26T10:13:44;17.50;99.90
8711;DHT22;4392;47.400;8.062;2022-10-26T10:16:20;17.50;99.90
8711;DHT22;4392;47.400;8.062;2022-10-26T10:18:59;17.60;99.90
8711;DHT22;4392;47.400;8.062;2022-10-26T10:21:56;17.60;99.90
8711;DHT22;4392;47.400;8.062;2022-10-26T10:27:00;17.60;99.90
8711;DHT22;4392;47.400;8.062;2022-10-26T10:29:29;17.80;99.90
8711;DHT22;4392;47.400;8.062;2022-10-26T10:32:00;17.80;99.90
8711;DHT22;4392;47.400;8.062;2022-10-26T10:34:26;17.70;99.90
8711;DHT22;4392;47.400;8.062;2022-10-26T10:36:54;17.70;99.90
8711;DHT22;4392;47.400;8.062;2022-10-26T10:39:40;17.80;99.90
8711;DHT22;4392;47.400;8.062;2022-10-26T10:42:20;17.80;99.90
8711;DHT22;4392;47.400;8.062;2022-10-26T10:45:05;17.80;99.90
8711;DHT22;4392;47.400;8.062;2022-10-26T10:47:34;17.80;99.90
8711;DHT22;4392;47.400;8.062;2022-10-26T10:50:19;17.90;99.90
8711;DHT22;4392;47.400;8.062;2022-10-26T10:52:46;17.90;99.90
8711;DHT22;4392;47.400;8.062;2022-10-26T10:55:20;17.90;99.90
8711;DHT22;4392;47.400;8.062;2022-10-26T11:00:27;18.00;99.90
8711;DHT22;4392;47.400;8.062;2022-10-26T11:08:19;17.90;99.90
8711;DHT22;4392;47.400;8.062;2022-10-26T11:11:05;17.70;99.90
8711;DHT22;4392;47.400;8.062;2022-10-26T11:17:07;17.60;99.90
8711;DHT22;4392;47.400;8.062;2022-10-26T11:19:50;17.60;99.90
8711;DHT22;4392;47.400;8.062;2022-10-26T11:28:33;17.80;99.90
8711;DHT22;4392;47.400;8.062;2022-10-26T11:31:09;17.80;99.90
8711;DHT22;4392;47.400;8.062;2022-10-26T11:33:44;17.80;99.90
8711;DHT22;4392;47.400;8.062;2022-10-26T11:36:17;17.90;99.90
8711;DHT22;4392;47.400;8.062;2022-10-26T11:42:05;18.10;99.90
8711;DHT22;4392;47.400;8.062;2022-10-26T11:47:39;18.20;99.90
8711;DHT22;4392;47.400;8.062;2022-10-26T11:50:22;18.20;99.90
8711;DHT22;4392;47.400;8.062;2022-10-26T11:53:17;18.20;99.90
8711;DHT22;4392;47.400;8.062;2022-10-26T11:55:53;18.20;99.90
8711;DHT22;4392;47.400;8.062;2022-10-26T11:58:26;18.20;99.90
8711;DHT22;4392;47.400;8.062;2022-10-26T12:01:03;18.20;99.90
8711;DHT22;4392;47.400;8.062;2022-10-26T12:03:35;18.30;99.90
8711;DHT22;4392;47.400;8.062;2022-10-26T12:06:05;18.30;99.90
8711;DHT22;4392;47.400;8.062;2022-10-26T12:08:36;18.30;99.90
8711;DHT22;4392;47.400;8.062;2022-10-26T12:19:47;18.50;99.90
8711;DHT22;4392;47.400;8.062;2022-10-26T12:22:28;18.50;99.90
8711;DHT22;4392;47.400;8.062;2022-10-26T12:38:00;18.20;99.90
8711;DHT22;4392;47.400;8.062;2022-10-26T12:40:36;18.30;99.90
8711;DHT22;4392;47.400;8.062;2022-10-26T12:48:43;18.30;99.90
8711;DHT22;4392;47.400;8.062;2022-10-26T12:54:00;18.70;99.90
8711;DHT22;4392;47.400;8.062;2022-10-26T12:56:32;18.70;99.90
8711;DHT22;4392;47.400;8.062;2022-10-26T13:05:05;18.70;99.90
8711;DHT22;4392;47.400;8.062;2022-10-26T13:07:38;18.80;99.90
8711;DHT22;4392;47.400;8.062;2022-10-26T13:10:19;18.90;99.90
8711;DHT22;4392;47.400;8.062;2022-10-26T13:12:58;18.80;99.90
8711;DHT22;4392;47.400;8.062;2022-10-26T13:15:32;18.90;99.90
8711;DHT22;4392;47.400;8.062;2022-10-26T13:18:20;19.00;99.90
8711;DHT22;4392;47.400;8.062;2022-10-26T13:21:11;19.10;99.90
8711;DHT22;4392;47.400;8.062;2022-10-26T13:23:41;19.10;99.90
8711;DHT22;4392;47.400;8.062;2022-10-26T13:26:11;19.20;99.90
8711;DHT22;4392;47.400;8.062;2022-10-26T13:33:37;19.40;99.90
8711;DHT22;4392;47.400;8.062;2022-10-26T13:38:45;19.40;99.90
8711;DHT22;4392;47.400;8.062;2022-10-26T13:41:29;19.40;99.90
8711;DHT22;4392;47.400;8.062;2022-10-26T13:43:58;19.50;99.90
8711;DHT22;4392;47.400;8.062;2022-10-26T13:46:26;19.50;99.90
8711;DHT22;4392;47.400;8.062;2022-10-26T13:49:41;19.60;99.90
8711;DHT22;4392;47.400;8.062;2022-10-26T13:52:02;19.60;99.90
8711;DHT22;4392;47.400;8.062;2022-10-26T13:54:55;19.70;99.90
8711;DHT22;4392;47.400;8.062;2022-10-26T13:57:42;19.80;99.90
8711;DHT22;4392;47.400;8.062;2022-10-26T14:02:41;20.00;99.90
8711;DHT22;4392;47.400;8.062;2022-10-26T14:05:16;20.00;99.90
8711;DHT22;4392;47.400;8.062;2022-10-26T14:07:52;20.00;99.90
8711;DHT22;4392;47.400;8.062;2022-10-26T14:10:52;20.00;99.90
8711;DHT22;4392;47.400;8.062;2022-10-26T14:13:23;20.10;99.90
8711;DHT22;4392;47.400;8.062;2022-10-26T14:15:55;20.20;99.90
8711;DHT22;4392;47.400;8.062;2022-10-26T14:18:27;20.30;99.90
8711;DHT22;4392;47.400;8.062;2022-10-26T14:21:14;20.30;99.90
8711;DHT22;4392;47.400;8.062;2022-10-26T14:23:55;20.40;99.90
8711;DHT22;4392;47.400;8.062;2022-10-26T14:26:26;20.40;99.90
8711;DHT22;4392;47.400;8.062;2022-10-26T14:28:59;20.50;99.90
8711;DHT22;4392;47.400;8.062;2022-10-26T14:31:32;20.70;99.90
8711;DHT22;4392;47.400;8.062;2022-10-26T14:34:05;20.70;99.90
8711;DHT22;4392;47.400;8.062;2022-10-26T14:36:37;20.60;99.90
8711;DHT22;4392;47.400;8.062;2022-10-26T14:39:14;20.70;99.90
8711;DHT22;4392;47.400;8.062;2022-10-26T14:41:43;20.60;99.90
8711;DHT22;4392;47.400;8.062;2022-10-26T14:44:18;20.60;99.90
8711;DHT22;4392;47.400;8.062;2022-10-26T14:46:45;20.60;99.90
8711;DHT22;4392;47.400;8.062;2022-10-26T14:49:24;20.50;99.90
8711;DHT22;4392;47.400;8.062;2022-10-26T14:52:04;20.50;99.90
8711;DHT22;4392;47.400;8.062;2022-10-26T14:54:30;20.40;99.90
8711;DHT22;4392;47.400;8.062;2022-10-26T14:56:58;20.30;99.90
8711;DHT22;4392;47.400;8.062;2022-10-26T14:59:34;20.30;99.90
8711;DHT22;4392;47.400;8.062;2022-10-26T15:02:19;20.30;99.90
8711;DHT22;4392;47.400;8.062;2022-10-26T15:05:01;20.40;99.90
8711;DHT22;4392;47.400;8.062;2022-10-26T15:07:36;20.30;99.90
8711;DHT22;4392;47.400;8.062;2022-10-26T15:10:04;20.30;99.90
8711;DHT22;4392;47.400;8.062;2022-10-26T15:12:37;20.20;99.90
8711;DHT22;4392;47.400;8.062;2022-10-26T15:17:57;20.10;99.90
8711;DHT22;4392;47.400;8.062;2022-10-26T15:20:26;20.10;99.90
8711;DHT22;4392;47.400;8.062;2022-10-26T15:22:57;20.20;99.90
8711;DHT22;4392;47.400;8.062;2022-10-26T15:25:26;20.20;99.90
8711;DHT22;4392;47.400;8.062;2022-10-26T15:27:52;20.20;99.90
8711;DHT22;4392;47.400;8.062;2022-10-26T15:30:26;20.10;99.90
8711;DHT22;4392;47.400;8.062;2022-10-26T15:32:53;20.10;99.90
8711;DHT22;4392;47.400;8.062;2022-10-26T15:35:30;20.00;99.90
8711;DHT22;4392;47.400;8.062;2022-10-26T15:37:57;20.10;99.90
8711;DHT22;4392;47.400;8.062;2022-10-26T15:40:24;20.00;99.90
8711;DHT22;4392;47.400;8.062;2022-10-26T15:43:01;20.00;99.90
8711;DHT22;4392;47.400;8.062;2022-10-26T15:45:31;20.00;99.90
8711;DHT22;4392;47.400;8.062;2022-10-26T15:48:15;20.00;99.90
8711;DHT22;4392;47.400;8.062;2022-10-26T15:50:41;20.00;99.90
8711;DHT22;4392;47.400;8.062;2022-10-26T15:53:24;19.90;99.90
8711;DHT22;4392;47.400;8.062;2022-10-26T15:55:56;19.90;99.90
8711;DHT22;4392;47.400;8.062;2022-10-26T15:58:22;19.90;99.90
8711;DHT22;4392;47.400;8.062;2022-10-26T16:00:48;19.90;99.90
8711;DHT22;4392;47.400;8.062;2022-10-26T16:03:24;19.80;99.90
8711;DHT22;4392;47.400;8.062;2022-10-26T16:06:00;19.80;99.90
8711;DHT22;4392;47.400;8.062;2022-10-26T16:08:29;19.80;99.90
8711;DHT22;4392;47.400;8.062;2022-10-26T16:10:55;19.70;99.90
8711;DHT22;4392;47.400;8.062;2022-10-26T16:13:21;19.50;99.90
8711;DHT22;4392;47.400;8.062;2022-10-26T16:15:47;19.50;99.90
8711;DHT22;4392;47.400;8.062;2022-10-26T16:18:14;19.50;99.90
8711;DHT22;4392;47.400;8.062;2022-10-26T16:20:40;19.40;99.90
8711;DHT22;4392;47.400;8.062;2022-10-26T16:23:09;19.30;99.90
8711;DHT22;4392;47.400;8.062;2022-10-26T16:25:41;19.30;99.90
8711;DHT22;4392;47.400;8.062;2022-10-26T16:28:10;19.20;99.90
8711;DHT22;4392;47.400;8.062;2022-10-26T16:30:36;19.20;99.90
8711;DHT22;4392;47.400;8.062;2022-10-26T16:33:02;19.10;99.90
8711;DHT22;4392;47.400;8.062;2022-10-26T16:35:28;19.00;99.90
8711;DHT22;4392;47.400;8.062;2022-10-26T16:37:54;18.90;99.90
8711;DHT22;4392;47.400;8.062;2022-10-26T16:40:20;18.90;99.90
8711;DHT22;4392;47.400;8.062;2022-10-26T16:42:46;18.80;99.90
8711;DHT22;4392;47.400;8.062;2022-10-26T16:45:14;18.70;99.90
8711;DHT22;4392;47.400;8.062;2022-10-26T16:47:47;18.70;99.90
8711;DHT22;4392;47.400;8.062;2022-10-26T16:50:13;18.70;99.90
8711;DHT22;4392;47.400;8.062;2022-10-26T16:52:39;18.70;99.90
8711;DHT22;4392;47.400;8.062;2022-10-26T16:55:06;18.70;99.90
8711;DHT22;4392;47.400;8.062;2022-10-26T16:57:34;18.60;99.90
8711;DHT22;4392;47.400;8.062;2022-10-26T17:00:00;18.60;99.90
8711;DHT22;4392;47.400;8.062;2022-10-26T17:02:26;18.60;99.90
8711;DHT22;4392;47.400;8.062;2022-10-26T17:04:52;18.50;99.90
8711;DHT22;4392;47.400;8.062;2022-10-26T17:07:18;18.50;99.90
8711;DHT22;4392;47.400;8.062;2022-10-26T17:09:43;18.40;99.90
8711;DHT22;4392;47.400;8.062;2022-10-26T17:12:12;18.40;99.90
8711;DHT22;4392;47.400;8.062;2022-10-26T17:14:38;18.40;99.90
8711;DHT22;4392;47.400;8.062;2022-10-26T17:17:04;18.30;99.90
8711;DHT22;4392;47.400;8.062;2022-10-26T17:19:30;18.30;99.90
8711;DHT22;4392;47.400;8.062;2022-10-26T17:21:56;18.30;99.90
8711;DHT22;4392;47.400;8.062;2022-10-26T17:24:21;18.20;99.90
8711;DHT22;4392;47.400;8.062;2022-10-26T17:26:47;18.30;99.90
8711;DHT22;4392;47.400;8.062;2022-10-26T17:29:13;18.20;99.90
8711;DHT22;4392;47.400;8.062;2022-10-26T17:31:40;18.20;99.90
8711;DHT22;4392;47.400;8.062;2022-10-26T17:34:06;18.10;99.90
8711;DHT22;4392;47.400;8.062;2022-10-26T17:36:31;18.10;99.90
8711;DHT22;4392;47.400;8.062;2022-10-26T17:38:57;18.00;99.90
8711;DHT22;4392;47.400;8.062;2022-10-26T17:41:28;18.00;99.90
8711;DHT22;4392;47.400;8.062;2022-10-26T17:44:03;18.00;99.90
8711;DHT22;4392;47.400;8.062;2022-10-26T17:46:29;17.90;99.90
8711;DHT22;4392;47.400;8.062;2022-10-26T17:48:56;17.90;99.90
8711;DHT22;4392;47.400;8.062;2022-10-26T17:51:23;17.90;99.90
8711;DHT22;4392;47.400;8.062;2022-10-26T17:53:50;17.90;99.90
8711;DHT22;4392;47.400;8.062;2022-10-26T17:56:18;17.90;99.90
8711;DHT22;4392;47.400;8.062;2022-10-26T17:58:49;17.80;99.90
8711;DHT22;4392;47.400;8.062;2022-10-26T18:01:25;17.80;99.90
8711;DHT22;4392;47.400;8.062;2022-10-26T18:03:52;17.80;99.90
8711;DHT22;4392;47.400;8.062;2022-10-26T18:06:18;17.70;99.90
8711;DHT22;4392;47.400;8.062;2022-10-26T18:08:44;17.70;99.90
8711;DHT22;4392;47.400;8.062;2022-10-26T18:11:13;17.70;99.90
8711;DHT22;4392;47.400;8.062;2022-10-26T18:13:40;17.70;99.90
8711;DHT22;4392;47.400;8.062;2022-10-26T18:16:09;17.70;99.90
8711;DHT22;4392;47.400;8.062;2022-10-26T18:18:36;17.70;99.90
8711;DHT22;4392;47.400;8.062;2022-10-26T18:21:07;17.70;99.90
8711;DHT22;4392;47.400;8.062;2022-10-26T18:23:34;17.70;99.90
8711;DHT22;4392;47.400;8.062;2022-10-26T18:26:15;17.70;99.90
8711;DHT22;4392;47.400;8.062;2022-10-26T18:28:45;17.70;99.90
8711;DHT22;4392;47.400;8.062;2022-10-26T18:31:17;17.60;99.90
8711;DHT22;4392;47.400;8.062;2022-10-26T18:33:43;17.50;99.90
8711;DHT22;4392;47.400;8.062;2022-10-26T18:36:14;17.60;99.90
8711;DHT22;4392;47.400;8.062;2022-10-26T18:38:40;17.50;99.90
8711;DHT22;4392;47.400;8.062;2022-10-26T18:41:12;17.50;99.90
8711;DHT22;4392;47.400;8.062;2022-10-26T18:43:39;17.40;99.90
8711;DHT22;4392;47.400;8.062;2022-10-26T18:46:14;17.40;99.90
8711;DHT22;4392;47.400;8.062;2022-10-26T18:48:41;17.40;99.90
8711;DHT22;4392;47.400;8.062;2022-10-26T18:51:29;17.30;99.90
8711;DHT22;4392;47.400;8.062;2022-10-26T18:53:56;17.30;99.90
8711;DHT22;4392;47.400;8.062;2022-10-26T18:56:22;17.30;99.90